createdAt,value
2017-12-21T00:00:03.482Z,91.90
2017-12-21T00:04:47.946Z,92.00
2017-12-21T00:09:33.075Z,92.10
2017-12-21T00:14:17.528Z,92.00
2017-12-21T00:19:02.175Z,91.90
2017-12-21T00:23:47.864Z,92.00
2017-12-21T00:28:32.914Z,92.10
2017-12-21T00:33:17.295Z,92.10
2017-12-21T00:38:02.348Z,92.10
2017-12-21T00:42:46.614Z,92.10
2017-12-21T00:47:30.969Z,92.20
2017-12-21T00:52:15.212Z,92.10
2017-12-21T00:56:59.490Z,92.20
2017-12-21T01:01:43.802Z,92.40
2017-12-21T01:06:28.143Z,92.40
2017-12-21T01:11:12.425Z,92.40
2017-12-21T01:15:56.662Z,92.60
2017-12-21T01:20:48.675Z,92.60
2017-12-21T01:25:32.975Z,92.60
2017-12-21T01:30:17.252Z,92.80
2017-12-21T01:35:01.604Z,92.90
2017-12-21T01:39:52.695Z,92.90
2017-12-21T01:44:36.990Z,92.80
2017-12-21T01:49:21.275Z,92.90
2017-12-21T01:54:05.659Z,93.00
2017-12-21T01:58:50.095Z,93.10
2017-12-21T02:03:34.460Z,93.10
2017-12-21T02:08:19.180Z,93.10
2017-12-21T02:13:03.528Z,93.10
2017-12-21T02:17:47.839Z,93.10
2017-12-21T02:22:32.172Z,93.30
2017-12-21T02:27:16.483Z,93.30
2017-12-21T02:32:00.854Z,93.20
2017-12-21T02:36:46.690Z,93.50
2017-12-21T02:41:31.879Z,93.20
2017-12-21T02:46:16.204Z,93.20
2017-12-21T02:51:00.581Z,93.30
2017-12-21T02:55:44.930Z,93.50
2017-12-21T03:00:29.267Z,93.80
2017-12-21T03:05:14.414Z,93.70
2017-12-21T03:09:59.035Z,93.70
2017-12-21T03:14:43.484Z,93.70
2017-12-21T03:19:28.775Z,93.90
2017-12-21T03:24:13.089Z,93.90
2017-12-21T03:28:57.415Z,93.90
2017-12-21T03:33:41.703Z,94.20
2017-12-21T03:38:25.971Z,94.60
2017-12-21T03:43:10.240Z,95.00
2017-12-21T03:47:54.520Z,95.20
2017-12-21T03:52:38.822Z,95.20
2017-12-21T03:57:23.171Z,95.50
2017-12-21T04:02:07.783Z,95.60
2017-12-21T04:06:52.098Z,95.60
2017-12-21T04:11:36.332Z,95.60
2017-12-21T04:16:20.639Z,95.60
2017-12-21T04:21:06.385Z,95.70
2017-12-21T04:25:50.656Z,95.40
2017-12-21T04:30:34.918Z,95.50
2017-12-21T04:35:19.259Z,95.60
2017-12-21T04:40:04.315Z,95.50
2017-12-21T04:44:48.604Z,95.60
2017-12-21T04:49:32.943Z,95.70
2017-12-21T04:54:17.293Z,95.70
2017-12-21T04:59:02.390Z,95.30
2017-12-21T05:03:46.790Z,95.30
2017-12-21T05:08:31.735Z,95.40
2017-12-21T05:13:16.255Z,95.30
2017-12-21T05:18:00.661Z,95.40
2017-12-21T05:22:45.551Z,95.50
2017-12-21T05:27:29.829Z,95.60
2017-12-21T05:32:14.121Z,95.70
2017-12-21T05:36:58.354Z,95.80
2017-12-21T05:41:42.651Z,96.00
2017-12-21T05:46:26.983Z,96.10
2017-12-21T05:51:11.281Z,96.20
2017-12-21T05:55:55.992Z,96.30
2017-12-21T06:00:40.387Z,96.30
2017-12-21T06:05:24.706Z,96.30
2017-12-21T06:10:09.943Z,96.40
2017-12-21T06:14:54.258Z,96.30
2017-12-21T06:19:38.629Z,96.30
2017-12-21T06:24:23.861Z,96.30
2017-12-21T06:29:08.255Z,96.40
2017-12-21T06:33:53.026Z,96.40
2017-12-21T06:38:37.367Z,96.40
2017-12-21T06:43:21.682Z,96.80
2017-12-21T06:48:06.139Z,96.50
2017-12-21T06:52:50.448Z,96.50
2017-12-21T06:57:34.844Z,96.50
2017-12-21T07:02:19.235Z,96.50
2017-12-21T07:07:05.273Z,96.70
2017-12-21T07:11:49.616Z,96.50
2017-12-21T07:16:34.276Z,96.50
2017-12-21T07:21:18.789Z,96.50
2017-12-21T07:26:03.286Z,96.60
2017-12-21T07:30:47.712Z,96.70
2017-12-21T07:35:32.916Z,96.70
2017-12-21T07:40:17.316Z,96.60
2017-12-21T07:45:01.665Z,96.70
2017-12-21T07:49:46.201Z,96.80
2017-12-21T07:54:30.488Z,97.10
2017-12-21T07:59:15.776Z,96.80
2017-12-21T08:04:00.371Z,96.90
2017-12-21T08:08:44.731Z,96.80
2017-12-21T08:13:29.122Z,96.90
2017-12-21T08:18:13.946Z,97.00
2017-12-21T08:22:59.064Z,96.90
2017-12-21T08:27:43.491Z,96.90
2017-12-21T08:32:27.752Z,96.80
2017-12-21T08:37:12.020Z,96.80
2017-12-21T08:41:56.349Z,96.80
2017-12-21T08:46:40.866Z,96.90
2017-12-21T08:51:25.187Z,96.80
2017-12-21T08:56:09.676Z,96.90
2017-12-21T09:00:54.145Z,96.80
2017-12-21T09:05:38.592Z,96.60
2017-12-21T09:10:22.950Z,96.70
2017-12-21T09:15:12.366Z,96.70
2017-12-21T09:19:56.738Z,96.60
2017-12-21T09:24:41.757Z,96.70
2017-12-21T09:29:26.611Z,96.50
2017-12-21T09:34:11.064Z,96.50
2017-12-21T09:38:55.884Z,96.60
2017-12-21T09:43:40.494Z,96.40
2017-12-21T09:48:24.902Z,96.40
2017-12-21T09:53:09.317Z,96.50
2017-12-21T09:57:53.659Z,96.50
2017-12-21T10:02:38.669Z,96.60
2017-12-21T10:07:25.251Z,96.60
2017-12-21T10:12:09.808Z,96.50
2017-12-21T10:16:54.317Z,96.50
2017-12-21T10:21:39.355Z,96.60
2017-12-21T10:26:24.619Z,96.60
2017-12-21T10:31:09.134Z,96.60
2017-12-21T10:35:53.534Z,96.70
2017-12-21T10:40:38.751Z,96.70
2017-12-21T10:45:24.158Z,96.60
2017-12-21T10:50:08.740Z,96.50
2017-12-21T10:54:53.349Z,96.60
2017-12-21T10:59:37.941Z,96.70
2017-12-21T11:04:22.456Z,96.60
2017-12-21T11:09:06.947Z,96.80
2017-12-21T11:13:51.637Z,96.70
2017-12-21T11:18:36.109Z,96.70
2017-12-21T11:23:20.651Z,96.70
2017-12-21T11:28:05.171Z,96.60
2017-12-21T11:32:50.485Z,96.60
2017-12-21T11:37:34.966Z,96.80
2017-12-21T11:42:19.473Z,96.80
2017-12-21T11:47:05.768Z,96.60
2017-12-21T11:51:50.241Z,96.60
2017-12-21T11:56:34.729Z,96.70
2017-12-21T12:01:19.321Z,96.50
2017-12-21T12:06:03.907Z,96.70
2017-12-21T12:10:48.351Z,96.60
2017-12-21T12:15:33.605Z,96.80
2017-12-21T12:20:18.132Z,96.70
2017-12-21T12:25:02.635Z,97.00
2017-12-21T12:29:47.407Z,97.00
2017-12-21T12:34:32.180Z,97.00
2017-12-21T12:39:16.735Z,97.00
2017-12-21T12:44:01.210Z,97.10
2017-12-21T12:48:45.711Z,97.10
2017-12-21T12:53:31.863Z,97.00
2017-12-21T12:58:16.465Z,97.00
2017-12-21T13:03:00.865Z,96.90
2017-12-21T13:07:45.781Z,96.80
2017-12-21T13:12:30.237Z,96.90
2017-12-21T13:17:15.715Z,97.00
2017-12-21T13:22:00.281Z,97.00
2017-12-21T13:26:44.876Z,97.10
2017-12-21T13:31:29.295Z,97.10
2017-12-21T13:36:13.859Z,97.20
2017-12-21T13:40:58.626Z,97.20
2017-12-21T13:45:43.277Z,97.20
2017-12-21T13:50:28.576Z,97.10
2017-12-21T13:55:12.984Z,97.10
2017-12-21T14:15:40.749Z,96.90
2017-12-21T14:20:25.399Z,96.90
2017-12-21T14:25:10.003Z,96.90
2017-12-21T14:29:54.578Z,96.90
2017-12-21T14:34:39.169Z,96.90
2017-12-21T14:39:23.631Z,96.90
2017-12-21T14:44:08.095Z,96.80
2017-12-21T14:48:53.176Z,96.80
2017-12-21T14:53:37.900Z,96.70
2017-12-21T14:58:22.656Z,96.80
2017-12-21T15:03:08.278Z,96.80
2017-12-21T15:07:54.714Z,97.10
2017-12-21T15:12:39.528Z,96.80
2017-12-21T15:17:24.491Z,96.80
2017-12-21T15:22:08.995Z,96.80
2017-12-21T15:26:54.154Z,96.80
2017-12-21T15:31:40.970Z,96.80
2017-12-21T15:36:25.660Z,96.70
2017-12-21T15:41:10.238Z,96.70
2017-12-21T15:45:54.777Z,96.80
2017-12-21T15:50:39.713Z,96.80
2017-12-21T15:55:24.212Z,96.80
2017-12-21T16:00:08.942Z,96.80
2017-12-21T16:04:53.654Z,96.80
2017-12-21T16:09:38.222Z,96.60
2017-12-21T16:14:22.745Z,96.70
2017-12-21T16:19:07.727Z,96.70
2017-12-21T16:23:52.964Z,96.70
2017-12-21T16:28:38.262Z,96.70
2017-12-21T16:33:22.758Z,96.70
2017-12-21T16:38:08.567Z,96.80
2017-12-21T16:42:53.098Z,96.80
2017-12-21T16:47:38.214Z,96.60
2017-12-21T16:52:22.831Z,96.70
2017-12-21T16:57:07.521Z,96.60
2017-12-21T17:01:52.511Z,96.60
2017-12-21T17:06:37.103Z,96.60
2017-12-21T17:11:21.660Z,96.70
2017-12-21T17:16:07.507Z,96.70
2017-12-21T17:20:52.453Z,96.70
2017-12-21T17:25:37.066Z,96.60
2017-12-21T17:30:22.326Z,96.60
2017-12-21T17:35:37.430Z,96.80
2017-12-21T17:40:22.828Z,97.10
2017-12-21T17:45:08.115Z,97.10
2017-12-21T17:49:53.415Z,97.00
2017-12-21T17:54:38.664Z,96.60
2017-12-21T17:59:24.223Z,96.60
2017-12-21T18:04:09.363Z,96.70
2017-12-21T18:08:53.747Z,96.60
2017-12-21T18:13:38.022Z,96.60
2017-12-21T18:18:22.407Z,96.50
2017-12-21T18:23:06.824Z,96.30
2017-12-21T18:27:51.184Z,96.20
2017-12-21T18:43:13.121Z,96.70
2017-12-21T18:48:08.783Z,96.40
2017-12-21T18:52:59.705Z,96.40
2017-12-21T18:57:51.445Z,96.30
2017-12-21T19:03:00.533Z,96.40
2017-12-21T19:07:58.866Z,96.20
2017-12-21T19:17:57.954Z,96.70
2017-12-21T19:22:57.275Z,96.70
2017-12-21T19:27:53.346Z,96.80
2017-12-21T19:32:55.858Z,96.50
2017-12-21T19:42:57.696Z,96.50
2017-12-21T19:53:20.572Z,96.30
2017-12-21T19:58:25.450Z,96.20
2017-12-21T20:03:24.292Z,96.00
2017-12-21T20:08:12.933Z,96.10
2017-12-21T20:13:14.060Z,96.00
2017-12-21T20:18:10.960Z,95.80
2017-12-21T20:28:11.196Z,95.00
2017-12-21T20:33:18.235Z,94.70
2017-12-21T20:38:27.366Z,94.70
2017-12-21T20:43:25.839Z,94.80
2017-12-21T20:48:20.405Z,95.10
2017-12-21T20:53:20.338Z,95.40
2017-12-21T20:58:20.412Z,95.50
2017-12-21T21:03:25.268Z,95.70
2017-12-21T21:08:32.083Z,95.90
2017-12-21T21:13:29.231Z,95.90
2017-12-21T21:18:26.131Z,96.00
2017-12-21T21:23:14.120Z,95.80
2017-12-21T21:28:14.571Z,95.40
2017-12-21T21:33:20.725Z,94.80
2017-12-21T21:38:14.249Z,94.60
2017-12-21T21:43:05.604Z,94.60
2017-12-21T21:47:57.889Z,94.80
2017-12-21T21:52:45.066Z,94.80
2017-12-21T21:57:29.375Z,94.80
2017-12-21T22:02:14.501Z,95.20
2017-12-21T22:06:58.806Z,95.20
2017-12-21T22:11:44.051Z,95.50
2017-12-21T22:16:28.345Z,95.50
2017-12-21T22:21:19.441Z,95.40
2017-12-21T22:26:06.267Z,95.20
2017-12-21T22:30:50.525Z,94.90
2017-12-21T22:41:14.619Z,94.60
2017-12-21T22:46:03.924Z,94.60
2017-12-21T22:50:48.331Z,94.70
2017-12-21T22:55:32.610Z,94.60
2017-12-21T23:00:25.077Z,94.70
2017-12-21T23:05:09.364Z,94.70
2017-12-21T23:09:53.689Z,94.70
2017-12-21T23:14:37.967Z,94.70
2017-12-21T23:19:22.271Z,94.70
2017-12-21T23:24:07.415Z,94.90
2017-12-21T23:28:51.704Z,94.90
2017-12-21T23:33:36.007Z,94.90
2017-12-21T23:38:20.351Z,94.90
2017-12-21T23:43:06.749Z,94.90
2017-12-21T23:47:51.219Z,95.00
2017-12-21T23:52:35.575Z,95.00
2017-12-21T23:57:19.847Z,95.00
